sensor_id;sensor_type;location;lat;lon;timestamp;pressure;altitude;pressure_sealevel;temperature;humidity
30682;BME280;17439;48.092;11.842;2022-11-20T00:01:27;94852.03;;;7.74;70.61
30682;BME280;17439;48.092;11.842;2022-11-20T00:03:55;94843.56;;;7.67;68.96
30682;BME280;17439;48.092;11.842;2022-11-20T00:06:23;94849.81;;;7.76;70.34
30682;BME280;17439;48.092;11.842;2022-11-20T00:08:50;94848.09;;;7.80;70.34
30682;BME280;17439;48.092;11.842;2022-11-20T00:11:20;94846.50;;;7.79;70.02
30682;BME280;17439;48.092;11.842;2022-11-20T00:13:49;94850.81;;;7.80;69.91
30682;BME280;17439;48.092;11.842;2022-11-20T00:16:19;94855.09;;;7.81;69.90
30682;BME280;17439;48.092;11.842;2022-11-20T00:18:47;94857.81;;;7.81;70.00
30682;BME280;17439;48.092;11.842;2022-11-20T00:21:19;94852.41;;;7.81;69.03
30682;BME280;17439;48.092;11.842;2022-11-20T00:23:48;94861.00;;;7.83;70.14
30682;BME280;17439;48.092;11.842;2022-11-20T00:26:17;94855.59;;;7.83;69.72
30682;BME280;17439;48.092;11.842;2022-11-20T00:28:50;94856.69;;;7.82;68.31
30682;BME280;17439;48.092;11.842;2022-11-20T00:31:18;94853.38;;;7.85;69.82
30682;BME280;17439;48.092;11.842;2022-11-20T00:33:45;94849.06;;;7.84;69.78
30682;BME280;17439;48.092;11.842;2022-11-20T00:36:17;94854.97;;;7.86;68.67
30682;BME280;17439;48.092;11.842;2022-11-20T00:38:45;94853.53;;;7.89;69.91
30682;BME280;17439;48.092;11.842;2022-11-20T00:41:14;94858.94;;;7.89;69.60
30682;BME280;17439;48.092;11.842;2022-11-20T00:43:42;94855.94;;;7.90;69.65
30682;BME280;17439;48.092;11.842;2022-11-20T00:46:13;94872.94;;;7.91;69.32
30682;BME280;17439;48.092;11.842;2022-11-20T00:48:41;94864.53;;;7.92;69.93
30682;BME280;17439;48.092;11.842;2022-11-20T00:51:08;94867.56;;;7.91;69.86
30682;BME280;17439;48.092;11.842;2022-11-20T00:53:35;94864.53;;;7.92;69.68
30682;BME280;17439;48.092;11.842;2022-11-20T00:56:05;94871.53;;;7.93;69.22
30682;BME280;17439;48.092;11.842;2022-11-20T00:58:37;94876.91;;;7.93;68.17
30682;BME280;17439;48.092;11.842;2022-11-20T01:01:13;94875.03;;;7.94;68.52
30682;BME280;17439;48.092;11.842;2022-11-20T01:03:44;94881.22;;;7.94;69.18
30682;BME280;17439;48.092;11.842;2022-11-20T01:06:17;94882.00;;;7.95;68.73
30682;BME280;17439;48.092;11.842;2022-11-20T01:08:46;94883.63;;;7.96;69.58
30682;BME280;17439;48.092;11.842;2022-11-20T01:11:22;94884.72;;;7.95;68.31
30682;BME280;17439;48.092;11.842;2022-11-20T01:13:51;94890.28;;;7.98;69.64
30682;BME280;17439;48.092;11.842;2022-11-20T01:16:22;94895.69;;;7.98;69.03
30682;BME280;17439;48.092;11.842;2022-11-20T01:18:51;94892.97;;;7.98;69.47
30682;BME280;17439;48.092;11.842;2022-11-20T01:21:21;94899.19;;;7.99;69.53
30682;BME280;17439;48.092;11.842;2022-11-20T01:23:50;94897.28;;;7.99;69.57
30682;BME280;17439;48.092;11.842;2022-11-20T01:26:20;94896.50;;;7.99;69.07
30682;BME280;17439;48.092;11.842;2022-11-20T01:28:48;94897.28;;;7.99;69.69
30682;BME280;17439;48.092;11.842;2022-11-20T01:31:18;94895.38;;;8.00;69.37
30682;BME280;17439;48.092;11.842;2022-11-20T01:33:48;94891.88;;;7.99;69.58
30682;BME280;17439;48.092;11.842;2022-11-20T01:36:16;94892.66;;;8.00;69.65
30682;BME280;17439;48.092;11.842;2022-11-20T01:38:43;94888.31;;;7.90;67.89
30682;BME280;17439;48.092;11.842;2022-11-20T01:41:12;94894.91;;;7.98;69.17
30682;BME280;17439;48.092;11.842;2022-11-20T01:43:39;94885.69;;;7.99;69.30
30682;BME280;17439;48.092;11.842;2022-11-20T01:46:18;94890.63;;;7.97;68.03
30682;BME280;17439;48.092;11.842;2022-11-20T01:51:42;94899.03;;;7.95;67.12
30682;BME280;17439;48.092;11.842;2022-11-20T01:54:16;94892.03;;;7.94;68.35
30682;BME280;17439;48.092;11.842;2022-11-20T01:56:45;94896.31;;;7.95;69.64
30682;BME280;17439;48.092;11.842;2022-11-20T01:59:15;94890.09;;;7.95;68.93
30682;BME280;17439;48.092;11.842;2022-11-20T02:01:45;94896.81;;;7.97;69.56
30682;BME280;17439;48.092;11.842;2022-11-20T02:04:13;94891.41;;;7.97;69.43
30682;BME280;17439;48.092;11.842;2022-11-20T02:06:55;94894.72;;;7.94;66.84
30682;BME280;17439;48.092;11.842;2022-11-20T02:09:24;94885.53;;;7.95;69.22
30682;BME280;17439;48.092;11.842;2022-11-20T02:11:52;94893.63;;;7.95;69.27
30682;BME280;17439;48.092;11.842;2022-11-20T02:14:21;94894.41;;;7.96;69.03
30682;BME280;17439;48.092;11.842;2022-11-20T02:16:49;94882.00;;;7.95;69.20
30682;BME280;17439;48.092;11.842;2022-11-20T02:19:27;94888.53;;;7.94;69.14
30682;BME280;17439;48.092;11.842;2022-11-20T02:22:12;94894.25;;;7.92;67.56
30682;BME280;17439;48.092;11.842;2022-11-20T02:24:42;94895.81;;;7.93;69.11
30682;BME280;17439;48.092;11.842;2022-11-20T02:27:12;94899.03;;;7.95;68.76
30682;BME280;17439;48.092;11.842;2022-11-20T02:29:46;94904.72;;;7.94;68.13
30682;BME280;17439;48.092;11.842;2022-11-20T02:32:29;94906.13;;;7.91;67.35
30682;BME280;17439;48.092;11.842;2022-11-20T02:34:57;94899.63;;;7.92;69.09
30682;BME280;17439;48.092;11.842;2022-11-20T02:37:32;94901.03;;;7.90;67.58
30682;BME280;17439;48.092;11.842;2022-11-20T02:40:01;94904.22;;;7.92;69.12
30682;BME280;17439;48.092;11.842;2022-11-20T02:42:28;94899.13;;;7.90;68.94
30682;BME280;17439;48.092;11.842;2022-11-20T02:44:55;94895.81;;;7.93;69.03
30682;BME280;17439;48.092;11.842;2022-11-20T02:47:23;94896.13;;;7.92;69.02
30682;BME280;17439;48.092;11.842;2022-11-20T02:49:50;94896.94;;;7.92;69.03
30682;BME280;17439;48.092;11.842;2022-11-20T02:52:17;94899.63;;;7.92;69.06
30682;BME280;17439;48.092;11.842;2022-11-20T02:54:44;94901.22;;;7.93;69.00
30682;BME280;17439;48.092;11.842;2022-11-20T02:57:11;94900.91;;;7.95;69.00
30682;BME280;17439;48.092;11.842;2022-11-20T02:59:38;94893.13;;;7.93;68.56
30682;BME280;17439;48.092;11.842;2022-11-20T03:02:06;94890.41;;;7.93;69.02
30682;BME280;17439;48.092;11.842;2022-11-20T03:04:33;94892.03;;;7.94;69.08
30682;BME280;17439;48.092;11.842;2022-11-20T03:07:00;94893.63;;;7.95;69.06
30682;BME280;17439;48.092;11.842;2022-11-20T03:09:27;94896.31;;;7.95;68.77
30682;BME280;17439;48.092;11.842;2022-11-20T03:11:54;94884.72;;;7.95;68.77
30682;BME280;17439;48.092;11.842;2022-11-20T03:14:21;94883.63;;;7.96;68.96
30682;BME280;17439;48.092;11.842;2022-11-20T03:16:49;94884.88;;;7.98;68.84
30682;BME280;17439;48.092;11.842;2022-11-20T03:19:16;94888.72;;;7.97;68.78
30682;BME280;17439;48.092;11.842;2022-11-20T03:21:43;94886.00;;;7.97;69.00
30682;BME280;17439;48.092;11.842;2022-11-20T03:24:10;94884.09;;;7.98;68.72
30682;BME280;17439;48.092;11.842;2022-11-20T03:26:38;94888.41;;;7.99;68.73
30682;BME280;17439;48.092;11.842;2022-11-20T03:29:06;94884.88;;;7.98;68.51
30682;BME280;17439;48.092;11.842;2022-11-20T03:31:35;94891.72;;;7.96;68.09
30682;BME280;17439;48.092;11.842;2022-11-20T03:34:03;94885.53;;;7.95;68.57
30682;BME280;17439;48.092;11.842;2022-11-20T03:36:31;94881.69;;;7.96;68.52
30682;BME280;17439;48.092;11.842;2022-11-20T03:38:58;94892.50;;;7.96;68.68
30682;BME280;17439;48.092;11.842;2022-11-20T03:41:28;94894.09;;;7.97;68.45
30682;BME280;17439;48.092;11.842;2022-11-20T03:44:00;94887.91;;;7.97;67.57
30682;BME280;17439;48.092;11.842;2022-11-20T03:46:29;94892.50;;;7.96;68.67
30682;BME280;17439;48.092;11.842;2022-11-20T03:48:56;94893.63;;;7.95;68.62
30682;BME280;17439;48.092;11.842;2022-11-20T03:51:25;94890.41;;;7.93;68.10
30682;BME280;17439;48.092;11.842;2022-11-20T03:53:57;94889.31;;;7.94;68.14
30682;BME280;17439;48.092;11.842;2022-11-20T03:56:30;94890.41;;;7.93;66.96
30682;BME280;17439;48.092;11.842;2022-11-20T03:58:57;94892.03;;;7.94;68.49
30682;BME280;17439;48.092;11.842;2022-11-20T04:01:33;94887.72;;;7.93;68.17
30682;BME280;17439;48.092;11.842;2022-11-20T04:04:01;94885.84;;;7.94;68.49
30682;BME280;17439;48.092;11.842;2022-11-20T04:06:36;94880.75;;;7.92;66.42
30682;BME280;17439;48.092;11.842;2022-11-20T04:09:04;94885.53;;;7.95;68.33
30682;BME280;17439;48.092;11.842;2022-11-20T04:11:34;94889.31;;;7.94;68.10
30682;BME280;17439;48.092;11.842;2022-11-20T04:14:04;94896.31;;;7.95;67.85
30682;BME280;17439;48.092;11.842;2022-11-20T04:16:35;94896.00;;;7.97;68.04
30682;BME280;17439;48.092;11.842;2022-11-20T04:19:04;94894.91;;;7.98;68.15
30682;BME280;17439;48.092;11.842;2022-11-20T04:21:32;94904.13;;;7.97;68.42
30682;BME280;17439;48.092;11.842;2022-11-20T04:24:00;94897.09;;;7.96;68.43
30682;BME280;17439;48.092;11.842;2022-11-20T04:26:28;94900.59;;;7.96;68.54
30682;BME280;17439;48.092;11.842;2022-11-20T04:28:55;94899.50;;;7.97;68.39
30682;BME280;17439;48.092;11.842;2022-11-20T04:31:28;94900.91;;;7.95;67.94
30682;BME280;17439;48.092;11.842;2022-11-20T04:33:59;94904.41;;;7.95;67.36
30682;BME280;17439;48.092;11.842;2022-11-20T04:36:27;94895.81;;;7.93;68.11
30682;BME280;17439;48.092;11.842;2022-11-20T04:38:56;94899.63;;;7.92;67.81
30682;BME280;17439;48.092;11.842;2022-11-20T04:41:26;94906.13;;;7.91;67.66
30682;BME280;17439;48.092;11.842;2022-11-20T04:43:55;94899.94;;;7.91;67.81
30682;BME280;17439;48.092;11.842;2022-11-20T04:46:23;94897.53;;;7.89;67.78
30682;BME280;17439;48.092;11.842;2022-11-20T04:48:50;94901.34;;;7.88;68.07
30682;BME280;17439;48.092;11.842;2022-11-20T04:51:17;94898.16;;;7.86;68.04
30682;BME280;17439;48.092;11.842;2022-11-20T04:53:44;94894.66;;;7.86;68.20
30682;BME280;17439;48.092;11.842;2022-11-20T04:56:12;94897.34;;;7.86;68.15
30682;BME280;17439;48.092;11.842;2022-11-20T04:58:39;94887.38;;;7.86;68.09
30682;BME280;17439;48.092;11.842;2022-11-20T05:01:24;94901.94;;;7.85;66.28
30682;BME280;17439;48.092;11.842;2022-11-20T05:03:52;94893.84;;;7.85;68.19
30682;BME280;17439;48.092;11.842;2022-11-20T05:06:20;94900.56;;;7.88;68.12
30682;BME280;17439;48.092;11.842;2022-11-20T05:08:48;94899.72;;;7.87;68.13
30682;BME280;17439;48.092;11.842;2022-11-20T05:11:18;94905.44;;;7.86;67.77
30682;BME280;17439;48.092;11.842;2022-11-20T05:13:46;94905.13;;;7.87;68.17
30682;BME280;17439;48.092;11.842;2022-11-20T05:16:15;94900.84;;;7.86;68.13
30682;BME280;17439;48.092;11.842;2022-11-20T05:18:43;94901.34;;;7.88;68.49
30682;BME280;17439;48.092;11.842;2022-11-20T05:21:11;94898.94;;;7.87;68.44
30682;BME280;17439;48.092;11.842;2022-11-20T05:23:39;94907.22;;;7.90;68.30
30682;BME280;17439;48.092;11.842;2022-11-20T05:26:12;94899.72;;;7.87;67.69
30682;BME280;17439;48.092;11.842;2022-11-20T05:28:39;94903.25;;;7.88;68.09
30682;BME280;17439;48.092;11.842;2022-11-20T05:31:12;94903.84;;;7.85;66.45
30682;BME280;17439;48.092;11.842;2022-11-20T05:33:41;94900.84;;;7.86;67.85
30682;BME280;17439;48.092;11.842;2022-11-20T05:36:08;94900.00;;;7.77;64.98
30682;BME280;17439;48.092;11.842;2022-11-20T05:38:35;94904.16;;;7.83;67.85
30682;BME280;17439;48.092;11.842;2022-11-20T05:41:16;94904.94;;;7.84;66.76
30682;BME280;17439;48.092;11.842;2022-11-20T05:43:45;94905.25;;;7.82;67.42
30682;BME280;17439;48.092;11.842;2022-11-20T05:46:14;94903.34;;;7.82;67.10
30682;BME280;17439;48.092;11.842;2022-11-20T05:48:42;94909.09;;;7.81;67.59
30682;BME280;17439;48.092;11.842;2022-11-20T05:51:13;94912.88;;;7.80;67.35
30682;BME280;17439;48.092;11.842;2022-11-20T05:53:40;94921.75;;;7.80;67.73
30682;BME280;17439;48.092;11.842;2022-11-20T05:56:19;94913.97;;;7.79;66.38
30682;BME280;17439;48.092;11.842;2022-11-20T05:58:47;94911.25;;;7.79;67.68
30682;BME280;17439;48.092;11.842;2022-11-20T06:01:21;94912.47;;;7.73;65.93
30682;BME280;17439;48.092;11.842;2022-11-20T06:03:49;94913.78;;;7.75;67.55
30682;BME280;17439;48.092;11.842;2022-11-20T06:06:17;94922.97;;;7.74;67.51
30682;BME280;17439;48.092;11.842;2022-11-20T06:08:45;94923.78;;;7.75;67.68
30682;BME280;17439;48.092;11.842;2022-11-20T06:11:13;94925.19;;;7.72;67.28
30682;BME280;17439;48.092;11.842;2022-11-20T06:13:41;94919.63;;;7.69;67.22
30682;BME280;17439;48.092;11.842;2022-11-20T06:16:09;94923.03;;;7.60;65.03
30682;BME280;17439;48.092;11.842;2022-11-20T06:18:37;94918.63;;;7.65;67.07
30682;BME280;17439;48.092;11.842;2022-11-20T06:21:13;94924.00;;;7.65;66.21
30682;BME280;17439;48.092;11.842;2022-11-20T06:23:41;94915.91;;;7.65;67.43
30682;BME280;17439;48.092;11.842;2022-11-20T06:26:14;94915.44;;;7.62;66.61
30682;BME280;17439;48.092;11.842;2022-11-20T06:28:42;94915.44;;;7.62;67.45
30682;BME280;17439;48.092;11.842;2022-11-20T06:31:11;94917.81;;;7.64;67.41
30682;BME280;17439;48.092;11.842;2022-11-20T06:33:39;94918.44;;;7.61;67.49
30682;BME280;17439;48.092;11.842;2022-11-20T06:36:07;94922.22;;;7.60;67.45
30682;BME280;17439;48.092;11.842;2022-11-20T06:38:38;94919.03;;;7.58;67.29
30682;BME280;17439;48.092;11.842;2022-11-20T06:41:07;94920.44;;;7.55;67.11
30682;BME280;17439;48.092;11.842;2022-11-20T06:43:34;94920.75;;;7.54;67.07
30682;BME280;17439;48.092;11.842;2022-11-20T06:46:01;94927.03;;;7.49;66.91
30682;BME280;17439;48.092;11.842;2022-11-20T06:48:29;94929.25;;;7.47;67.02
30682;BME280;17439;48.092;11.842;2022-11-20T06:50:57;94937.47;;;7.42;66.96
30682;BME280;17439;48.092;11.842;2022-11-20T06:53:24;94947.47;;;7.41;67.28
30682;BME280;17439;48.092;11.842;2022-11-20T06:55:52;94949.16;;;7.37;67.44
30682;BME280;17439;48.092;11.842;2022-11-20T06:58:22;94951.38;;;7.35;67.54
30682;BME280;17439;48.092;11.842;2022-11-20T07:00:49;94953.53;;;7.33;67.46
30682;BME280;17439;48.092;11.842;2022-11-20T07:03:16;94954.66;;;7.32;67.55
30682;BME280;17439;48.092;11.842;2022-11-20T07:05:43;94956.06;;;7.30;67.65
30682;BME280;17439;48.092;11.842;2022-11-20T07:08:11;94960.66;;;7.29;67.59
30682;BME280;17439;48.092;11.842;2022-11-20T07:10:39;94965.25;;;7.29;67.74
30682;BME280;17439;48.092;11.842;2022-11-20T07:13:06;94961.44;;;7.30;67.91
30682;BME280;17439;48.092;11.842;2022-11-20T07:15:33;94962.56;;;7.29;67.88
30682;BME280;17439;48.092;11.842;2022-11-20T07:18:01;94963.84;;;7.31;67.89
30682;BME280;17439;48.092;11.842;2022-11-20T07:20:28;94959.22;;;7.32;67.89
30682;BME280;17439;48.092;11.842;2022-11-20T07:22:56;94964.63;;;7.32;67.59
30682;BME280;17439;48.092;11.842;2022-11-20T07:25:25;94969.41;;;7.35;67.36
30682;BME280;17439;48.092;11.842;2022-11-20T07:27:56;94964.03;;;7.35;67.15
30682;BME280;17439;48.092;11.842;2022-11-20T07:30:23;94966.13;;;7.38;67.62
30682;BME280;17439;48.092;11.842;2022-11-20T07:32:51;94971.13;;;7.44;67.63
30682;BME280;17439;48.092;11.842;2022-11-20T07:35:19;94969.72;;;7.47;67.37
30682;BME280;17439;48.092;11.842;2022-11-20T07:37:47;94970.72;;;7.51;67.52
30682;BME280;17439;48.092;11.842;2022-11-20T07:40:15;94970.59;;;7.56;67.76
30682;BME280;17439;48.092;11.842;2022-11-20T07:42:53;94963.19;;;7.62;66.15
30682;BME280;17439;48.092;11.842;2022-11-20T07:45:23;94967.34;;;7.68;67.85
30682;BME280;17439;48.092;11.842;2022-11-20T07:47:51;94971.53;;;7.74;68.21
30682;BME280;17439;48.092;11.842;2022-11-20T07:50:19;94963.66;;;7.78;67.41
30682;BME280;17439;48.092;11.842;2022-11-20T07:52:46;94965.13;;;7.84;67.65
30682;BME280;17439;48.092;11.842;2022-11-20T07:55:14;94958.50;;;7.90;67.34
30682;BME280;17439;48.092;11.842;2022-11-20T07:57:41;94956.31;;;7.92;67.14
30682;BME280;17439;48.092;11.842;2022-11-20T08:00:10;94957.88;;;7.93;66.19
30682;BME280;17439;48.092;11.842;2022-11-20T08:02:40;94969.69;;;7.97;66.51
30682;BME280;17439;48.092;11.842;2022-11-20T08:05:08;94967.16;;;8.01;66.73
30682;BME280;17439;48.092;11.842;2022-11-20T08:07:37;94962.25;;;8.03;66.64
30682;BME280;17439;48.092;11.842;2022-11-20T08:10:05;94963.25;;;8.07;66.63
30682;BME280;17439;48.092;11.842;2022-11-20T08:12:32;94962.84;;;8.00;63.50
30682;BME280;17439;48.092;11.842;2022-11-20T08:14:59;94966.44;;;8.09;66.03
30682;BME280;17439;48.092;11.842;2022-11-20T08:17:27;94968.81;;;8.11;65.86
30682;BME280;17439;48.092;11.842;2022-11-20T08:19:54;94963.13;;;8.12;65.97
30682;BME280;17439;48.092;11.842;2022-11-20T08:22:21;94967.13;;;8.15;66.08
30682;BME280;17439;48.092;11.842;2022-11-20T08:24:48;94968.69;;;8.16;65.91
30682;BME280;17439;48.092;11.842;2022-11-20T08:27:15;94969.22;;;8.18;65.76
30682;BME280;17439;48.092;11.842;2022-11-20T08:29:43;94967.00;;;8.20;65.92
30682;BME280;17439;48.092;11.842;2022-11-20T08:32:10;94963.69;;;8.23;65.80
30682;BME280;17439;48.092;11.842;2022-11-20T08:34:37;94967.38;;;8.27;65.79
30682;BME280;17439;48.092;11.842;2022-11-20T08:37:04;94970.25;;;8.31;65.93
30682;BME280;17439;48.092;11.842;2022-11-20T08:39:31;94972.16;;;8.30;65.40
30682;BME280;17439;48.092;11.842;2022-11-20T08:41:58;94968.50;;;8.35;65.63
30682;BME280;17439;48.092;11.842;2022-11-20T08:44:25;94977.91;;;8.38;65.63
30682;BME280;17439;48.092;11.842;2022-11-20T08:46:52;94965.50;;;8.36;65.19
30682;BME280;17439;48.092;11.842;2022-11-20T08:49:20;94969.81;;;8.38;64.95
30682;BME280;17439;48.092;11.842;2022-11-20T08:51:47;94973.50;;;8.42;65.45
30682;BME280;17439;48.092;11.842;2022-11-20T08:54:14;94973.69;;;8.45;65.18
30682;BME280;17439;48.092;11.842;2022-11-20T08:56:41;94971.47;;;8.47;65.00
30682;BME280;17439;48.092;11.842;2022-11-20T08:59:08;94971.97;;;8.49;64.79
30682;BME280;17439;48.092;11.842;2022-11-20T09:01:56;94966.75;;;8.53;65.40
30682;BME280;17439;48.092;11.842;2022-11-20T09:04:23;94968.84;;;8.56;64.68
30682;BME280;17439;48.092;11.842;2022-11-20T09:06:50;94972.03;;;8.58;64.50
30682;BME280;17439;48.092;11.842;2022-11-20T09:09:18;94964.59;;;8.64;64.93
30682;BME280;17439;48.092;11.842;2022-11-20T09:11:45;94972.88;;;8.67;64.91
30682;BME280;17439;48.092;11.842;2022-11-20T09:14:12;94964.94;;;8.71;64.98
30682;BME280;17439;48.092;11.842;2022-11-20T09:16:39;94958.13;;;8.74;64.42
30682;BME280;17439;48.092;11.842;2022-11-20T09:19:06;94973.88;;;8.80;64.72
30682;BME280;17439;48.092;11.842;2022-11-20T09:21:54;94969.28;;;8.81;63.84
30682;BME280;17439;48.092;11.842;2022-11-20T09:24:26;94961.66;;;8.83;63.49
30682;BME280;17439;48.092;11.842;2022-11-20T09:26:53;94964.84;;;8.85;63.48
30682;BME280;17439;48.092;11.842;2022-11-20T09:29:20;94962.63;;;8.87;63.39
30682;BME280;17439;48.092;11.842;2022-11-20T09:31:48;94962.78;;;8.90;63.48
30682;BME280;17439;48.092;11.842;2022-11-20T09:34:15;94964.09;;;8.93;63.41
30682;BME280;17439;48.092;11.842;2022-11-20T09:36:43;94959.66;;;8.97;63.73
30682;BME280;17439;48.092;11.842;2022-11-20T09:39:10;94965.22;;;9.01;63.84
30682;BME280;17439;48.092;11.842;2022-11-20T09:47:11;94956.66;;;9.07;62.97
30682;BME280;17439;48.092;11.842;2022-11-20T09:50:12;94954.28;;;9.06;59.17
30682;BME280;17439;48.092;11.842;2022-11-20T09:55:21;94951.28;;;9.16;62.29
30682;BME280;17439;48.092;11.842;2022-11-20T09:57:51;94948.75;;;9.20;61.94
30682;BME280;17439;48.092;11.842;2022-11-20T10:00:18;94945.13;;;9.24;62.98
30682;BME280;17439;48.092;11.842;2022-11-20T10:02:55;94941.47;;;9.29;59.53
30682;BME280;17439;48.092;11.842;2022-11-20T10:05:39;94932.72;;;9.32;57.39
30682;BME280;17439;48.092;11.842;2022-11-20T10:08:19;94930.34;;;9.39;59.65
30682;BME280;17439;48.092;11.842;2022-11-20T10:11:08;94929.38;;;9.44;57.22
30682;BME280;17439;48.092;11.842;2022-11-20T10:19:51;94928.44;;;9.57;58.81
30682;BME280;17439;48.092;11.842;2022-11-20T10:22:43;94933.22;;;9.60;55.97
30682;BME280;17439;48.092;11.842;2022-11-20T10:25:21;94930.38;;;9.66;58.75
30682;BME280;17439;48.092;11.842;2022-11-20T10:28:15;94925.75;;;9.66;57.98
30682;BME280;17439;48.092;11.842;2022-11-20T10:30:55;94920.97;;;9.72;60.30
30682;BME280;17439;48.092;11.842;2022-11-20T10:33:25;94921.16;;;9.75;60.57
30682;BME280;17439;48.092;11.842;2022-11-20T10:36:17;94919.88;;;9.82;60.52
30682;BME280;17439;48.092;11.842;2022-11-20T10:38:56;94927.03;;;9.86;55.71
30682;BME280;17439;48.092;11.842;2022-11-20T10:41:34;94921.47;;;9.91;58.57
30682;BME280;17439;48.092;11.842;2022-11-20T10:44:05;94919.41;;;9.88;59.58
30682;BME280;17439;48.092;11.842;2022-11-20T10:46:40;94917.97;;;9.99;58.27
30682;BME280;17439;48.092;11.842;2022-11-20T10:49:14;94921.59;;;10.04;60.10
30682;BME280;17439;48.092;11.842;2022-11-20T10:57:10;94913.34;;;10.09;55.79
30682;BME280;17439;48.092;11.842;2022-11-20T11:00:01;94910.31;;;10.10;56.34
30682;BME280;17439;48.092;11.842;2022-11-20T11:05:22;94892.44;;;10.18;57.98
30682;BME280;17439;48.092;11.842;2022-11-20T11:07:56;94892.78;;;10.16;53.99
30682;BME280;17439;48.092;11.842;2022-11-20T11:10:32;94885.59;;;10.12;52.10
30682;BME280;17439;48.092;11.842;2022-11-20T11:13:03;94889.88;;;10.22;57.47
30682;BME280;17439;48.092;11.842;2022-11-20T11:15:39;94888.94;;;10.26;54.41
30682;BME280;17439;48.092;11.842;2022-11-20T11:18:10;94885.25;;;10.31;55.84
30682;BME280;17439;48.092;11.842;2022-11-20T11:20:38;94886.22;;;10.35;57.26
30682;BME280;17439;48.092;11.842;2022-11-20T11:23:10;94880.16;;;10.38;57.00
30682;BME280;17439;48.092;11.842;2022-11-20T11:25:57;94895.75;;;10.41;54.70
30682;BME280;17439;48.092;11.842;2022-11-20T11:28:25;94880.28;;;10.42;54.97
30682;BME280;17439;48.092;11.842;2022-11-20T11:30:53;94882.84;;;10.38;54.15
30682;BME280;17439;48.092;11.842;2022-11-20T11:33:22;94900.22;;;10.28;55.17
30682;BME280;17439;48.092;11.842;2022-11-20T11:35:51;94885.44;;;10.34;55.55
30682;BME280;17439;48.092;11.842;2022-11-20T11:38:39;94888.75;;;10.31;51.90
30682;BME280;17439;48.092;11.842;2022-11-20T11:41:15;94883.66;;;10.30;54.94
30682;BME280;17439;48.092;11.842;2022-11-20T11:43:52;94894.03;;;10.28;54.22
30682;BME280;17439;48.092;11.842;2022-11-20T11:51:39;94874.28;;;10.19;53.63
30682;BME280;17439;48.092;11.842;2022-11-20T11:54:16;94882.88;;;10.21;55.67
30682;BME280;17439;48.092;11.842;2022-11-20T11:56:46;94875.06;;;10.19;56.30
30682;BME280;17439;48.092;11.842;2022-11-20T11:59:25;94879.38;;;10.20;54.39
30682;BME280;17439;48.092;11.842;2022-11-20T12:01:58;94885.59;;;10.21;55.62
30682;BME280;17439;48.092;11.842;2022-11-20T12:04:44;94877.44;;;10.21;54.43
30682;BME280;17439;48.092;11.842;2022-11-20T12:07:20;94870.94;;;10.22;55.29
30682;BME280;17439;48.092;11.842;2022-11-20T12:10:16;94878.72;;;10.23;53.96
30682;BME280;17439;48.092;11.842;2022-11-20T12:12:48;94873.13;;;10.28;54.92
30682;BME280;17439;48.092;11.842;2022-11-20T12:15:28;94888.75;;;10.31;54.41
30682;BME280;17439;48.092;11.842;2022-11-20T12:17:56;94865.69;;;10.34;55.18
30682;BME280;17439;48.092;11.842;2022-11-20T12:20:27;94863.75;;;10.34;54.23
30682;BME280;17439;48.092;11.842;2022-11-20T12:23:09;94869.78;;;10.40;53.78
30682;BME280;17439;48.092;11.842;2022-11-20T12:25:43;94864.84;;;10.42;54.62
30682;BME280;17439;48.092;11.842;2022-11-20T12:29:01;94866.59;;;10.38;53.75
30682;BME280;17439;48.092;11.842;2022-11-20T12:34:35;94858.47;;;10.38;53.10
30682;BME280;17439;48.092;11.842;2022-11-20T12:39:41;94874.72;;;10.38;54.25
30682;BME280;17439;48.092;11.842;2022-11-20T12:42:23;94883.66;;;10.30;53.83
30682;BME280;17439;48.092;11.842;2022-11-20T12:56:40;94893.91;;;9.63;55.69
30682;BME280;17439;48.092;11.842;2022-11-20T12:59:34;94864.75;;;9.51;56.37
30682;BME280;17439;48.092;11.842;2022-11-20T13:02:30;94868.75;;;9.36;56.93
30682;BME280;17439;48.092;11.842;2022-11-20T13:07:36;94869.03;;;9.17;58.33
30682;BME280;17439;48.092;11.842;2022-11-20T13:10:05;94866.00;;;9.10;58.61
30682;BME280;17439;48.092;11.842;2022-11-20T13:12:45;94872.84;;;9.07;58.95
30682;BME280;17439;48.092;11.842;2022-11-20T13:15:29;94868.06;;;9.04;58.99
30682;BME280;17439;48.092;11.842;2022-11-20T13:18:07;94879.50;;;9.01;58.98
30682;BME280;17439;48.092;11.842;2022-11-20T13:20:35;94872.50;;;9.00;59.30
30682;BME280;17439;48.092;11.842;2022-11-20T13:23:03;94869.63;;;8.97;59.66
30682;BME280;17439;48.092;11.842;2022-11-20T13:25:37;94865.16;;;8.92;58.84
30682;BME280;17439;48.092;11.842;2022-11-20T13:28:29;94862.78;;;8.90;59.61
30682;BME280;17439;48.092;11.842;2022-11-20T13:30:57;94859.75;;;8.92;60.00
30682;BME280;17439;48.092;11.842;2022-11-20T13:33:33;94860.88;;;8.91;59.67
30682;BME280;17439;48.092;11.842;2022-11-20T13:36:22;94864.69;;;8.90;60.04
30682;BME280;17439;48.092;11.842;2022-11-20T13:38:54;94861.66;;;8.92;60.47
30682;BME280;17439;48.092;11.842;2022-11-20T13:41:29;94863.59;;;8.91;60.17
30682;BME280;17439;48.092;11.842;2022-11-20T13:46:41;94865.97;;;8.93;60.35
30682;BME280;17439;48.092;11.842;2022-11-20T13:49:17;94855.47;;;8.91;60.46
30682;BME280;17439;48.092;11.842;2022-11-20T13:51:47;94854.19;;;8.88;60.50
30682;BME280;17439;48.092;11.842;2022-11-20T13:54:55;94849.72;;;8.84;59.83
30682;BME280;17439;48.092;11.842;2022-11-20T14:02:39;94854.00;;;8.76;61.36
30682;BME280;17439;48.092;11.842;2022-11-20T14:05:19;94851.59;;;8.75;61.07
30682;BME280;17439;48.092;11.842;2022-11-20T14:07:49;94843.31;;;8.71;61.64
30682;BME280;17439;48.092;11.842;2022-11-20T14:10:28;94846.66;;;8.68;61.23
30682;BME280;17439;48.092;11.842;2022-11-20T14:12:58;94840.16;;;8.69;61.85
30682;BME280;17439;48.092;11.842;2022-11-20T14:15:36;94848.53;;;8.59;61.77
30682;BME280;17439;48.092;11.842;2022-11-20T14:18:13;94840.31;;;8.64;62.24
30682;BME280;17439;48.092;11.842;2022-11-20T14:20:41;94845.69;;;8.64;62.47